Time;durP1;ratioP1;P1;durP2;ratioP2;P2;SDS_P1;SDS_P2;PMS_P1;PMS_P2;Temp;Humidity;BMP_temperature;BMP_pressure;BME280_temperature;BME280_humidity;BME280_pressure;Samples;Min_cycle;Max_cycle;Signal;HPM_P1;HPM_P2
2021/07/29 00:04:22;;;;;;;3.60;2.27;;;13.10;99.90;;;13.52;100.00;95085.00;2441642;54;34450;-53
2021/07/29 00:07:09;;;;;;;3.00;2.25;;;13.00;99.90;;;13.37;100.00;95104.00;2212925;55;26829;-52
2021/07/29 00:09:55;;;;;;;5.22;2.53;;;12.90;99.90;;;13.29;100.00;95096.00;2214452;54;27262;-53
2021/07/29 00:12:41;;;;;;;2.65;2.45;;;12.90;99.90;;;13.29;100.00;95104.00;2455418;54;26879;-52
2021/07/29 00:15:28;;;;;;;8.35;2.55;;;12.90;99.90;;;13.26;100.00;95101.00;2244294;53;26743;-53
2021/07/29 00:21:19;;;;;;;3.60;2.07;;;12.80;99.90;;;13.20;100.00;95094.00;2472365;53;26994;-52
2021/07/29 00:24:07;;;;;;;2.77;2.20;;;12.80;99.90;;;13.16;100.00;95104.00;2243095;53;26747;-52
2021/07/29 00:26:54;;;;;;;3.30;2.28;;;12.80;99.90;;;13.14;100.00;95101.00;2472596;53;26744;-53
2021/07/29 00:32:39;;;;;;;3.75;2.28;;;12.60;99.90;;;12.99;100.00;95073.00;2380166;55;34622;-53
2021/07/29 00:35:25;;;;;;;4.90;2.43;;;12.50;99.90;;;12.82;100.00;95102.00;2181447;58;26678;-51
2021/07/29 00:38:11;;;;;;;4.10;2.30;;;12.40;99.90;;;12.84;100.00;95102.00;2388807;56;26803;-52
2021/07/29 00:40:58;;;;;;;2.70;2.03;;;12.40;99.90;;;12.81;100.00;95094.00;2164070;57;27207;-52
2021/07/29 00:43:45;;;;;;;5.33;2.57;;;12.40;99.90;;;12.80;100.00;95100.00;2374266;56;26899;-53
2021/07/29 00:49:30;;;;;;;6.90;2.50;;;12.30;99.90;;;12.87;100.00;95078.00;2459848;54;34198;-52
2021/07/29 00:55:13;;;;;;;3.13;2.53;;;12.30;99.90;;;12.74;100.00;95070.00;2376429;55;34549;-52
2021/07/29 00:57:59;;;;;;;10.17;2.40;;;12.20;99.90;;;12.58;100.00;95094.00;2342563;57;26258;-52
2021/07/29 01:00:46;;;;;;;5.57;2.03;;;12.20;99.90;;;12.63;100.00;95094.00;2139786;58;27140;-52
2021/07/29 01:03:32;;;;;;;5.53;2.50;;;12.10;99.90;;;12.51;100.00;95096.00;2143292;57;26794;-52
2021/07/29 01:06:18;;;;;;;6.90;2.20;;;12.10;99.90;;;12.41;100.00;95095.00;2327675;56;26849;-52
2021/07/29 01:09:08;;;;;;;5.67;2.10;;;12.00;99.90;;;12.42;100.00;95094.00;2137282;57;27278;-54
2021/07/29 01:11:54;;;;;;;4.85;2.45;;;12.10;99.90;;;12.46;100.00;95093.00;2143262;57;26871;-52
2021/07/29 01:17:37;;;;;;;4.50;2.43;;;12.00;99.90;;;12.42;100.00;95067.00;2424129;55;33834;-53
2021/07/29 01:20:24;;;;;;;3.13;2.13;;;11.90;99.90;;;12.25;100.00;95089.00;2399952;56;26671;-53
2021/07/29 01:23:10;;;;;;;5.07;2.27;;;11.90;99.90;;;12.18;100.00;95085.00;2163590;57;26599;-53
2021/07/29 01:25:56;;;;;;;3.27;2.00;;;11.80;99.90;;;12.12;100.00;95086.00;2162890;56;26766;-52
2021/07/29 01:28:42;;;;;;;7.03;2.47;;;11.80;99.90;;;12.26;100.00;95084.00;2373563;57;26701;-53
2021/07/29 01:34:26;;;;;;;2.50;1.90;;;11.70;99.90;;;12.19;100.00;95067.00;2386370;55;33788;-52
2021/07/29 01:37:12;;;;;;;3.23;1.90;;;11.70;99.90;;;12.13;100.00;95085.00;2391642;55;26737;-52
2021/07/29 01:39:59;;;;;;;3.50;1.73;;;11.70;99.90;;;12.08;100.00;95082.00;2160132;57;26787;-53
2021/07/29 01:42:45;;;;;;;3.07;2.10;;;11.70;99.90;;;12.04;100.00;95086.00;2158966;57;26738;-53
2021/07/29 01:45:31;;;;;;;2.60;1.97;;;11.70;99.90;;;12.00;100.00;95081.00;2368766;57;27276;-52
2021/07/29 01:48:18;;;;;;;6.83;2.20;;;11.60;99.90;;;11.87;100.00;95089.00;2164714;56;26828;-52
2021/07/29 01:51:04;;;;;;;6.50;2.03;;;11.60;99.90;;;11.95;100.00;95091.00;2424790;55;26571;-52
2021/07/29 01:56:48;;;;;;;2.17;1.83;;;11.50;99.90;;;11.96;100.00;95077.00;2464113;53;34022;-52
2021/07/29 01:59:35;;;;;;;3.70;1.97;;;11.50;99.90;;;11.89;100.00;95097.00;2222823;54;27161;-52
2021/07/29 02:02:21;;;;;;;3.77;1.80;;;11.40;99.90;;;11.91;100.00;95095.00;2436192;55;26617;-52
2021/07/29 02:05:09;;;;;;;2.97;1.90;;;11.50;99.90;;;11.90;100.00;95094.00;2205570;56;26920;-52
2021/07/29 02:10:53;;;;;;;2.40;2.20;;;11.40;99.90;;;11.90;100.00;95066.00;2350511;56;35063;-53
2021/07/29 02:13:40;;;;;;;2.80;1.80;;;11.40;99.90;;;11.86;100.00;95092.00;2322876;56;26762;-52
2021/07/29 02:16:26;;;;;;;6.73;1.90;;;11.40;99.90;;;11.74;100.00;95098.00;2107985;59;26817;-52
2021/07/29 02:19:12;;;;;;;3.63;1.97;;;11.40;99.90;;;11.68;100.00;95099.00;2132084;58;27411;-53
2021/07/29 02:21:59;;;;;;;4.63;1.80;;;11.30;99.90;;;11.66;100.00;95101.00;2338042;58;26681;-53
2021/07/29 02:24:45;;;;;;;3.90;2.00;;;11.20;99.90;;;11.60;100.00;95109.00;2132410;57;27382;-52
2021/07/29 02:27:31;;;;;;;4.90;2.00;;;11.20;99.90;;;11.61;100.00;95100.00;2312842;57;27531;-53
2021/07/29 02:30:17;;;;;;;4.60;1.87;;;11.20;99.90;;;11.52;100.00;95098.00;2127877;58;27497;-52
2021/07/29 02:33:04;;;;;;;4.53;1.90;;;11.20;99.90;;;11.48;100.00;95100.00;2126017;58;26831;-52
2021/07/29 02:35:50;;;;;;;4.70;1.90;;;11.20;99.90;;;11.56;100.00;95100.00;2128054;59;26714;-52
2021/07/29 02:38:37;;;;;;;4.07;1.90;;;11.10;99.90;;;11.48;100.00;95105.00;2314567;58;26707;-53
2021/07/29 02:41:23;;;;;;;4.10;2.20;;;11.00;99.90;;;11.43;100.00;95100.00;2103822;58;26841;-52
2021/07/29 02:44:15;;;;;;;3.77;1.83;;;11.00;99.90;;;11.38;100.00;95102.00;2136387;56;26762;-52
2021/07/29 02:47:02;;;;;;;7.07;2.33;;;10.90;99.90;;;11.34;100.00;95105.00;2139293;56;26813;-54
2021/07/29 02:49:48;;;;;;;5.40;2.30;;;11.00;99.90;;;11.40;100.00;95113.00;2314151;57;26679;-53
2021/07/29 02:52:35;;;;;;;3.83;2.43;;;11.00;99.90;;;11.49;100.00;95109.00;2116447;57;26224;-53
2021/07/29 02:55:21;;;;;;;5.67;2.23;;;11.10;99.90;;;11.53;100.00;95113.00;2116825;57;27425;-53
2021/07/29 02:58:08;;;;;;;4.87;2.17;;;11.10;99.90;;;11.51;100.00;95116.00;2115610;57;27006;-53
2021/07/29 03:03:50;;;;;;;2.90;1.97;;;11.10;99.90;;;11.62;100.00;95099.00;2396682;55;34407;-53
2021/07/29 03:06:36;;;;;;;4.77;1.90;;;11.20;99.90;;;11.60;100.00;95128.00;2189554;55;26730;-53
2021/07/29 03:09:22;;;;;;;2.50;1.90;;;11.20;99.90;;;11.61;100.00;95124.00;2175444;56;26761;-53
2021/07/29 03:12:09;;;;;;;4.70;2.07;;;11.20;99.90;;;11.55;100.00;95121.00;2355191;56;26803;-53
2021/07/29 03:17:53;;;;;;;7.70;2.80;;;11.00;99.90;;;11.50;100.00;95097.00;2501247;52;33833;-53
2021/07/29 03:20:42;;;;;;;11.23;3.27;;;11.10;99.90;;;11.53;100.00;95111.00;2489820;53;26796;-53
2021/07/29 03:26:25;;;;;;;18.27;3.37;;;11.00;99.90;;;11.34;100.00;95104.00;2360473;55;33884;-52
2021/07/29 03:29:11;;;;;;;9.50;3.30;;;10.90;99.90;;;11.27;100.00;95142.00;2140230;58;26950;-52
2021/07/29 03:31:58;;;;;;;7.87;2.80;;;11.00;99.90;;;11.41;100.00;95131.00;2327742;57;26839;-53
2021/07/29 03:37:41;;;;;;;5.23;3.13;;;11.00;99.90;;;11.49;100.00;95118.00;2362554;55;33998;-53
2021/07/29 03:40:28;;;;;;;3.90;1.93;;;11.00;99.90;;;11.42;100.00;95129.00;2135865;56;26720;-53
2021/07/29 03:43:14;;;;;;;3.47;2.30;;;11.10;99.90;;;11.54;100.00;95123.00;2368428;56;26817;-53
2021/07/29 03:46:00;;;;;;;3.97;2.20;;;11.10;99.90;;;11.45;100.00;95124.00;2158695;57;26160;-54
2021/07/29 03:48:46;;;;;;;2.47;2.20;;;11.10;99.90;;;11.43;100.00;95128.00;2372510;56;26703;-53
2021/07/29 03:51:32;;;;;;;3.67;2.03;;;11.10;99.90;;;11.42;100.00;95125.00;2175539;57;26717;-53
2021/07/29 03:54:19;;;;;;;2.70;2.00;;;11.00;99.90;;;11.37;100.00;95119.00;2183223;57;27430;-53
2021/07/29 03:57:08;;;;;;;3.80;2.00;;;11.00;99.90;;;11.36;100.00;95128.00;2405738;56;27597;-53
2021/07/29 03:59:54;;;;;;;2.37;2.13;;;11.00;99.90;;;11.33;100.00;95123.00;2189428;56;27216;-53
2021/07/29 04:02:40;;;;;;;2.97;1.67;;;11.10;99.90;;;11.61;100.00;95127.00;2406774;56;26674;-54
2021/07/29 04:05:27;;;;;;;3.07;1.80;;;11.10;99.90;;;11.50;100.00;95127.00;2188398;56;26925;-53
2021/07/29 04:08:12;;;;;;;3.63;1.87;;;11.00;99.90;;;11.38;100.00;95130.00;2407122;56;26311;-53
2021/07/29 04:10:59;;;;;;;2.27;1.70;;;10.90;99.90;;;11.27;100.00;95124.00;2188742;56;27048;-53
2021/07/29 04:13:45;;;;;;;2.53;1.73;;;10.90;99.90;;;11.27;100.00;95131.00;2409460;56;27391;-54
2021/07/29 04:16:31;;;;;;;4.27;2.10;;;11.00;99.90;;;11.38;100.00;95131.00;2189941;56;27152;-53
2021/07/29 04:19:17;;;;;;;2.80;2.13;;;11.00;99.90;;;11.44;100.00;95136.00;2189018;56;27401;-52
2021/07/29 04:22:06;;;;;;;2.27;1.90;;;11.10;99.90;;;11.50;100.00;95126.00;2395203;55;26903;-53
2021/07/29 04:24:55;;;;;;;4.13;2.20;;;11.20;99.90;;;11.62;100.00;95128.00;2182975;56;26803;-54
2021/07/29 04:27:41;;;;;;;3.93;2.03;;;11.20;99.90;;;11.55;100.00;95127.00;2408828;55;27250;-53
2021/07/29 04:30:28;;;;;;;3.40;2.23;;;11.20;99.90;;;11.57;100.00;95131.00;2187969;57;26690;-52
2021/07/29 04:33:15;;;;;;;4.87;2.23;;;11.20;99.90;;;11.62;100.00;95125.00;2407658;55;26848;-54
2021/07/29 04:36:05;;;;;;;3.50;2.17;;;11.30;99.90;;;11.71;100.00;95143.00;2189603;57;26766;-53
2021/07/29 04:38:52;;;;;;;6.13;2.10;;;11.30;99.90;;;11.83;100.00;95141.00;2407643;55;26766;-52
2021/07/29 04:41:41;;;;;;;2.50;2.07;;;11.40;99.90;;;11.89;100.00;95130.00;2187168;56;27253;-53
2021/07/29 04:44:27;;;;;;;4.13;2.37;;;11.60;99.90;;;12.16;100.00;95144.00;2381514;56;26849;-54
2021/07/29 04:47:16;;;;;;;6.40;2.37;;;11.60;99.90;;;12.03;100.00;95133.00;2164511;56;26961;-53
2021/07/29 04:50:04;;;;;;;4.13;1.70;;;11.60;99.90;;;12.04;100.00;95132.00;2376638;56;27309;-53
2021/07/29 04:52:51;;;;;;;3.97;1.70;;;11.60;99.90;;;12.01;100.00;95123.00;2151213;56;26989;-53
2021/07/29 04:55:38;;;;;;;5.33;1.70;;;11.60;99.90;;;12.04;100.00;95138.00;2362321;56;26804;-53
2021/07/29 04:58:24;;;;;;;2.00;1.50;;;11.70;99.90;;;12.15;100.00;95135.00;2151047;56;26828;-54
2021/07/29 05:01:11;;;;;;;3.03;2.00;;;11.60;99.90;;;12.06;100.00;95134.00;2363668;56;26946;-53
2021/07/29 05:04:02;;;;;;;3.83;2.00;;;11.70;99.90;;;12.17;100.00;95139.00;2154996;56;26855;-53
2021/07/29 05:06:48;;;;;;;3.97;1.90;;;11.80;99.90;;;12.29;100.00;95136.00;2162570;56;26817;-52
2021/07/29 05:09:35;;;;;;;3.00;1.90;;;11.90;99.90;;;12.50;100.00;95134.00;2376766;56;26784;-53
2021/07/29 05:12:21;;;;;;;2.80;1.70;;;12.00;99.90;;;12.61;100.00;95133.00;2163814;56;26645;-54
2021/07/29 05:18:07;;;;;;;4.67;2.30;;;12.30;99.90;;;13.08;100.00;95116.00;2376638;55;35344;-53
2021/07/29 05:20:53;;;;;;;5.30;2.05;;;12.50;99.90;;;13.12;100.00;95131.00;2134137;56;26999;-53
2021/07/29 05:23:39;;;;;;;2.47;1.90;;;12.60;99.90;;;13.15;100.00;95125.00;2325875;56;26243;-54
2021/07/29 05:29:22;;;;;;;4.90;2.30;;;12.80;99.90;;;13.93;100.00;95117.00;2375086;55;34189;-53
2021/07/29 05:32:10;;;;;;;5.53;2.40;;;13.40;99.90;;;14.13;100.00;95131.00;2140409;57;27122;-53
2021/07/29 05:37:53;;;;;;;4.15;2.20;;;14.00;99.90;;;14.98;100.00;95111.00;2429840;54;34577;-53
2021/07/29 05:40:40;;;;;;;3.53;2.10;;;14.30;99.90;;;14.91;100.00;95123.00;2176547;55;26135;-53
2021/07/29 05:43:26;;;;;;;4.95;2.25;;;14.50;99.90;;;15.27;100.00;95111.00;2398574;55;26279;-53
2021/07/29 05:46:13;;;;;;;4.15;2.25;;;14.80;99.90;;;15.50;100.00;95109.00;2180677;55;26087;-53
2021/07/29 05:49:00;;;;;;;6.65;2.72;;;14.90;99.90;;;15.55;100.00;95107.00;2181060;55;26798;-53
2021/07/29 05:51:46;;;;;;;4.45;2.15;;;15.00;99.90;;;15.73;100.00;95104.00;2396633;55;26812;-53
2021/07/29 05:54:33;;;;;;;3.97;2.08;;;15.10;99.90;;;15.73;100.00;95101.00;2182685;56;26601;-54
2021/07/29 05:57:19;;;;;;;5.03;2.00;;;15.10;99.90;;;15.78;100.00;95099.00;2410014;56;26844;-53
2021/07/29 06:00:08;;;;;;;2.87;2.30;;;15.20;99.90;;;15.84;100.00;95098.00;2204166;56;26585;-53
2021/07/29 06:02:57;;;;;;;3.35;2.30;;;15.40;99.90;;;16.12;100.00;95101.00;2433914;55;31359;-54
2021/07/29 06:05:43;;;;;;;5.32;2.33;;;15.70;99.90;;;16.47;100.00;95097.00;2211079;56;26675;-53
2021/07/29 06:08:29;;;;;;;4.05;2.20;;;16.00;99.90;;;16.94;100.00;95096.00;2433040;55;26814;-53
2021/07/29 06:14:12;;;;;;;2.65;2.15;;;16.30;99.90;;;17.77;100.00;95094.00;2381887;55;33841;-53
2021/07/29 06:16:59;;;;;;;2.85;2.28;;;16.90;99.90;;;17.99;100.00;95101.00;2156682;56;26804;-53
2021/07/29 06:19:45;;;;;;;3.87;2.53;;;17.40;99.90;;;18.47;100.00;95095.00;2379054;56;26749;-53
2021/07/29 06:25:28;;;;;;;3.50;2.40;;;18.30;99.90;;;19.97;100.00;95079.00;2452785;54;34057;-53
2021/07/29 06:28:16;;;;;;;2.85;2.25;;;18.50;99.90;;;19.60;100.00;95085.00;2222327;55;26577;-53
2021/07/29 06:31:02;;;;;;;3.92;2.12;;;18.50;99.90;;;19.41;100.00;95082.00;2436548;54;26890;-54
2021/07/29 06:33:49;;;;;;;3.80;2.20;;;18.40;99.90;;;19.45;100.00;95083.00;2234539;55;27065;-53
2021/07/29 06:36:35;;;;;;;4.93;2.20;;;18.60;99.90;;;19.76;100.00;95075.00;2464213;54;26643;-53
2021/07/29 06:42:18;;;;;;;2.10;1.87;;;19.00;99.90;;;20.28;100.00;95070.00;2386720;55;33768;-54
2021/07/29 06:45:07;;;;;;;2.97;2.12;;;19.20;99.90;;;20.31;100.00;95075.00;2124035;57;26683;-53
2021/07/29 06:47:53;;;;;;;2.50;1.87;;;19.70;99.90;;;21.08;100.00;95077.00;2363825;56;26729;-54
2021/07/29 06:53:37;;;;;;;3.20;1.90;;;21.50;99.90;;;23.56;100.00;95068.00;2449974;54;33628;-54
2021/07/29 06:56:24;;;;;;;2.60;1.80;;;23.00;99.90;;;25.98;100.00;95074.00;2218837;56;27239;-54
2021/07/29 07:02:09;;;;;;;2.10;1.90;;;25.40;99.90;;;28.31;100.00;95057.00;2373054;55;34732;-54
2021/07/29 07:04:56;;;;;;;2.33;1.70;;;25.20;99.90;;;27.34;100.00;95060.00;2148563;57;26807;-54
2021/07/29 07:07:42;;;;;;;2.00;1.80;;;25.30;99.90;;;27.39;100.00;95070.00;2389850;55;26758;-54
2021/07/29 07:10:30;;;;;;;2.00;1.80;;;24.40;99.90;;;25.59;100.00;95071.00;2392868;55;26877;-54
2021/07/29 07:13:16;;;;;;;3.70;1.80;;;24.20;99.90;;;25.68;100.00;95075.00;2194145;56;26670;-53
2021/07/29 07:16:03;;;;;;;3.62;1.80;;;23.80;99.90;;;24.80;100.00;95076.00;2386513;55;26795;-53
2021/07/29 07:18:50;;;;;;;2.10;1.90;;;24.00;99.90;;;25.71;100.00;95069.00;2161453;56;26202;-54
2021/07/29 07:21:38;;;;;;;2.30;2.10;;;24.10;99.90;;;25.99;100.00;95066.00;2168963;56;27005;-54
2021/07/29 07:27:21;;;;;;;2.80;1.92;;;25.90;99.90;;;28.60;100.00;95059.00;2433598;54;34469;-54
2021/07/29 07:30:10;;;;;;;2.72;1.80;;;26.40;99.90;;;28.86;100.00;95058.00;2398672;55;25648;-54
2021/07/29 07:32:56;;;;;;;2.78;2.00;;;26.60;99.90;;;28.96;100.00;95054.00;2210467;56;26723;-53
2021/07/29 07:35:42;;;;;;;3.12;1.73;;;27.60;99.90;;;30.58;92.17;95058.00;2421717;55;26643;-54
2021/07/29 07:41:26;;;;;;;2.58;1.80;;;29.00;99.90;;;32.13;88.28;95046.00;2343151;56;33543;-52
2021/07/29 07:44:13;;;;;;;1.75;1.65;;;29.60;99.90;;;32.24;95.00;95049.00;2304978;57;25666;-53
2021/07/29 07:46:59;;;;;;;2.08;1.92;;;30.20;99.90;;;33.59;77.94;95049.00;2111894;58;25999;-53
2021/07/29 07:52:42;;;;;;;2.60;2.12;;;30.20;99.90;;;31.91;76.31;95053.00;2356893;55;33520;-54
2021/07/29 07:55:28;;;;;;;2.35;1.92;;;29.40;99.90;;;31.49;88.64;95046.00;2164780;56;25582;-54
2021/07/29 07:58:15;;;;;;;2.30;2.10;;;29.00;99.90;;;31.71;91.78;95051.00;2169303;56;25555;-54
2021/07/29 08:04:00;;;;;;;3.08;2.58;;;30.30;99.90;;;33.40;65.34;95042.00;2436687;54;33690;-55
2021/07/29 08:06:47;;;;;;;2.45;2.25;;;29.30;99.90;;;30.86;70.14;95043.00;2169763;55;25865;-55
2021/07/29 08:09:33;;;;;;;4.90;2.62;;;30.00;99.90;;;32.78;82.87;95039.00;2367876;55;25753;-54
2021/07/29 08:24:10;;;;;;;2.80;2.60;;;30.70;99.90;;;32.90;65.52;95024.00;2426708;54;32838;-54
2021/07/29 08:29:53;;;;;;;4.78;3.08;;;30.40;99.90;;;32.51;59.19;95024.00;2386968;55;33677;-54
2021/07/29 08:32:40;;;;;;;2.67;2.47;;;31.00;99.90;;;33.95;47.79;95022.00;2151949;57;26107;-55
2021/07/29 08:38:23;;;;;;;2.95;2.65;;;30.30;99.90;;;32.40;46.41;95020.00;2427771;55;33106;-54
2021/07/29 08:41:11;;;;;;;2.70;2.47;;;30.40;99.90;;;32.23;48.50;95022.00;2393495;55;25685;-53
2021/07/29 08:43:58;;;;;;;2.90;2.70;;;30.00;99.90;;;31.19;49.09;95015.00;2173306;55;26930;-53
2021/07/29 08:46:45;;;;;;;2.95;2.60;;;29.80;99.90;;;30.88;53.72;95019.00;2402203;56;25849;-55
2021/07/29 08:49:33;;;;;;;3.17;2.87;;;29.50;99.90;;;30.78;66.90;95012.00;2167228;55;25743;-53
2021/07/29 08:52:19;;;;;;;3.20;2.90;;;29.90;99.90;;;31.47;50.69;95016.00;2379628;55;25630;-53
2021/07/29 08:55:09;;;;;;;3.30;3.00;;;29.80;99.90;;;31.94;44.52;95014.00;2166025;55;25787;-53
2021/07/29 08:57:55;;;;;;;6.30;2.97;;;30.50;99.90;;;31.61;47.07;95016.00;2364408;55;25109;-54
2021/07/29 09:00:57;;;;;;;3.95;2.55;;;30.10;99.90;;;31.79;56.32;95017.00;2150672;55;25679;-54
2021/07/29 09:03:44;;;;;;;3.67;3.08;;;30.80;99.90;;;33.44;50.45;95012.00;2152366;55;25705;-52
2021/07/29 09:06:31;;;;;;;3.30;3.00;;;31.40;99.90;;;33.93;55.15;95012.00;2363899;55;25663;-52
2021/07/29 09:09:39;;;;;;;3.65;2.87;;;32.40;99.90;;;35.10;43.15;95014.00;2152518;56;25688;-53
2021/07/29 09:15:21;;;;;;;4.72;3.15;;;32.10;99.90;;;34.88;41.10;95006.00;2334091;56;34228;-52
2021/07/29 09:18:09;;;;;;;3.10;2.90;;;32.40;99.90;;;34.35;41.17;95011.00;2112523;58;25814;-52
2021/07/29 09:21:13;;;;;;;3.30;3.00;;;32.40;99.90;;;34.80;40.77;95012.00;2322565;57;26350;-52
2021/07/29 09:24:09;;;;;;;3.17;2.92;;;32.20;99.90;;;33.31;42.67;95007.00;2329357;56;25712;-51
2021/07/29 09:30:08;;;;;;;3.35;3.05;;;30.70;99.90;;;32.31;51.79;95011.00;2405004;54;32945;-54
2021/07/29 09:33:04;;;;;;;2.90;2.70;;;31.10;99.90;;;33.48;50.07;95013.00;2346925;56;26372;-53
2021/07/29 09:35:53;;;;;;;3.17;2.87;;;31.50;99.90;;;34.19;52.80;95010.00;2143124;58;26179;-52
2021/07/29 09:38:39;;;;;;;3.37;3.08;;;32.10;99.90;;;35.04;43.26;95003.00;2154943;57;25619;-51
2021/07/29 09:41:27;;;;;;;3.22;2.92;;;32.80;99.90;;;34.67;39.89;95011.00;2159696;57;25182;-51
2021/07/29 09:44:14;;;;;;;3.17;2.87;;;32.60;99.90;;;34.71;49.57;95006.00;2372897;57;25221;-52
2021/07/29 09:47:03;;;;;;;3.30;3.00;;;32.60;99.90;;;34.74;41.27;95014.00;2162266;57;25578;-52
2021/07/29 09:49:51;;;;;;;5.03;3.00;;;32.80;99.90;;;34.32;40.14;95004.00;2373655;57;26088;-51
2021/07/29 09:52:39;;;;;;;3.40;3.10;;;32.20;99.90;;;33.92;49.08;95002.00;2161526;57;25105;-52
2021/07/29 09:55:27;;;;;;;3.42;3.12;;;32.20;99.90;;;34.26;45.47;95005.00;2374442;57;26062;-51
2021/07/29 09:58:14;;;;;;;3.22;2.92;;;31.80;99.90;;;33.16;47.15;94997.00;2163947;57;27095;-52
2021/07/29 10:04:00;;;;;;;3.50;3.20;;;29.70;99.90;;;29.82;52.75;94991.00;2467085;53;32630;-54
2021/07/29 10:09:47;;;;;;;3.17;2.97;;;30.10;99.90;;;32.97;46.90;94982.00;2436423;53;32638;-53
2021/07/29 10:15:42;;;;;;;4.03;3.60;;;29.90;99.90;;;30.20;57.61;94984.00;2364473;55;32243;-53
2021/07/29 10:18:51;;;;;;;3.30;3.10;;;29.20;99.90;;;30.27;76.46;94982.00;2131270;57;25593;-53
2021/07/29 10:28:23;;;;;;;3.65;3.35;;;28.70;99.90;;;29.83;80.33;94983.00;2461683;53;32639;-53
2021/07/29 10:31:12;;;;;;;3.47;3.17;;;28.60;99.90;;;29.50;70.26;94972.00;2229147;54;25744;-53
2021/07/29 10:37:43;;;;;;;3.50;3.20;;;28.40;99.90;;;29.54;65.12;94966.00;2394871;55;33179;-53
2021/07/29 10:40:34;;;;;;;4.43;3.40;;;28.50;99.90;;;30.08;87.26;94974.00;2346010;56;25724;-53
2021/07/29 10:47:00;;;;;;;3.67;3.37;;;28.10;99.90;;;28.85;66.79;94967.00;2422803;53;33765;-54
2021/07/29 10:53:22;;;;;;;3.87;3.58;;;28.40;99.90;;;30.31;70.21;94956.00;2388429;55;32529;-53
2021/07/29 10:59:06;;;;;;;4.00;3.60;;;29.00;99.90;;;29.95;86.80;94959.00;2411708;54;33895;-54
2021/07/29 11:01:52;;;;;;;3.53;3.22;;;29.50;99.90;;;30.56;72.83;94960.00;2214341;54;26334;-53
2021/07/29 11:04:53;;;;;;;3.83;3.53;;;29.60;99.90;;;30.09;79.81;94953.00;2449296;54;25811;-53
2021/07/29 11:07:43;;;;;;;3.70;3.40;;;29.40;99.90;;;29.87;79.38;94951.00;2449622;54;25763;-53
2021/07/29 11:10:30;;;;;;;3.95;3.55;;;29.00;99.90;;;28.95;75.47;94958.00;2221955;54;26982;-53
2021/07/29 11:13:17;;;;;;;3.60;3.30;;;28.60;99.90;;;29.08;84.69;94949.00;2449145;54;26781;-53
2021/07/29 11:16:09;;;;;;;3.78;3.40;;;28.30;99.90;;;28.38;89.33;94945.00;2214024;54;27200;-53
2021/07/29 11:19:02;;;;;;;3.58;3.28;;;28.20;99.90;;;28.32;94.96;94947.00;2444440;54;27593;-53
2021/07/29 11:22:03;;;;;;;3.70;3.33;;;28.30;99.90;;;28.79;85.09;94946.00;2218812;54;25795;-53
2021/07/29 11:24:50;;;;;;;4.22;3.83;;;28.60;99.90;;;29.28;87.64;94955.00;2217762;55;26665;-52
2021/07/29 11:27:36;;;;;;;4.15;3.40;;;27.90;99.90;;;27.86;95.52;94938.00;2223088;55;25866;-51
2021/07/29 11:30:22;;;;;;;4.10;3.70;;;27.80;99.90;;;28.34;97.03;94945.00;2449917;54;27963;-52
2021/07/29 11:33:21;;;;;;;3.72;3.40;;;28.10;99.90;;;28.40;85.68;94943.00;2234578;55;26649;-51
2021/07/29 11:36:09;;;;;;;4.55;3.47;;;27.20;99.90;;;26.95;93.17;94939.00;2239984;55;26824;-51
2021/07/29 11:38:58;;;;;;;4.18;3.78;;;26.60;99.90;;;26.59;100.00;94933.00;2464355;54;26717;-51
2021/07/29 11:44:48;;;;;;;3.50;3.20;;;26.70;99.90;;;28.06;100.00;94938.00;2454378;53;33495;-54
2021/07/29 11:47:41;;;;;;;4.18;3.37;;;27.20;99.90;;;27.60;93.16;94935.00;2209984;55;26878;-53
2021/07/29 11:53:41;;;;;;;4.25;3.75;;;26.20;99.90;;;27.08;99.66;94925.00;2374130;55;33739;-53
2021/07/29 11:56:29;;;;;;;3.80;3.40;;;26.30;99.90;;;26.61;100.00;94924.00;2368929;57;26669;-54
2021/07/29 11:59:16;;;;;;;3.60;3.30;;;25.90;99.90;;;26.32;100.00;94916.00;2162638;57;27083;-53
2021/07/29 12:02:03;;;;;;;4.72;3.78;;;26.20;99.90;;;26.91;100.00;94916.00;2405250;56;27228;-53
2021/07/29 12:04:49;;;;;;;4.20;3.80;;;27.00;99.90;;;27.71;100.00;94911.00;2185667;57;26244;-53
2021/07/29 12:07:40;;;;;;;3.50;3.20;;;27.80;99.90;;;28.54;100.00;94904.00;2397538;56;27405;-53
2021/07/29 12:10:29;;;;;;;6.00;3.35;;;28.40;99.90;;;28.93;88.29;94906.00;2399053;56;26571;-53
2021/07/29 12:13:17;;;;;;;3.70;3.40;;;28.40;99.90;;;28.86;100.00;94903.00;2183148;57;26631;-53
2021/07/29 12:16:04;;;;;;;4.45;3.53;;;28.00;99.90;;;28.17;100.00;94898.00;2401888;56;26590;-53
2021/07/29 12:19:03;;;;;;;3.80;3.40;;;27.30;99.90;;;27.62;100.00;94900.00;2402165;56;26164;-53
2021/07/29 12:21:51;;;;;;;6.00;3.55;;;26.30;99.90;;;26.51;99.97;94900.00;2185560;56;26637;-53
2021/07/29 12:24:47;;;;;;;4.43;3.90;;;26.00;99.90;;;26.21;100.00;94890.00;2185142;56;27293;-53
2021/07/29 12:27:46;;;;;;;3.92;3.53;;;25.70;99.90;;;25.92;100.00;94898.00;2402219;56;26336;-54
2021/07/29 12:30:39;;;;;;;3.95;3.65;;;26.20;99.90;;;26.78;100.00;94887.00;2185358;57;26933;-53
2021/07/29 12:36:23;;;;;;;3.80;3.20;;;27.70;99.90;;;28.65;100.00;94887.00;2367458;55;34025;-54
2021/07/29 12:39:10;;;;;;;3.95;3.50;;;28.30;99.90;;;28.89;97.35;94884.00;2163744;58;27216;-53
2021/07/29 12:41:56;;;;;;;4.72;3.42;;;28.80;99.90;;;29.41;100.00;94886.00;2135539;57;25721;-53
2021/07/29 12:44:57;;;;;;;3.67;3.37;;;28.40;99.90;;;28.13;94.59;94882.00;2339185;57;26757;-54
2021/07/29 12:51:02;;;;;;;3.78;3.42;;;27.70;99.90;;;28.32;87.51;94874.00;2523769;53;33294;-53
2021/07/29 12:53:56;;;;;;;3.85;3.42;;;28.10;99.90;;;28.38;86.22;94875.00;2503764;53;26648;-54
2021/07/29 12:56:43;;;;;;;3.70;3.40;;;27.90;99.90;;;28.48;85.95;94867.00;2280939;53;27150;-53
2021/07/29 12:59:29;;;;;;;4.87;3.42;;;26.80;99.90;;;26.94;100.00;94862.00;2512541;53;27146;-53
2021/07/29 13:02:15;;;;;;;4.20;3.55;;;26.30;99.90;;;26.52;100.00;94853.00;2262447;54;27025;-53
2021/07/29 13:05:02;;;;;;;4.90;3.85;;;25.70;99.90;;;26.08;100.00;94854.00;2497690;54;26970;-53
2021/07/29 13:07:49;;;;;;;20.17;5.05;;;25.40;99.90;;;25.63;100.00;94857.00;2273462;54;26895;-53
2021/07/29 13:10:35;;;;;;;4.00;3.60;;;25.50;99.90;;;25.67;100.00;94861.00;2495389;53;26872;-53
2021/07/29 13:13:25;;;;;;;4.65;3.62;;;26.00;99.90;;;26.48;100.00;94848.00;2281062;54;27291;-58
2021/07/29 13:16:12;;;;;;;4.05;3.65;;;25.70;99.90;;;26.06;100.00;94848.00;2529898;53;26707;-53
2021/07/29 13:18:58;;;;;;;3.80;3.50;;;25.80;99.90;;;26.43;100.00;94844.00;2276678;54;27154;-53
2021/07/29 13:21:44;;;;;;;4.20;3.80;;;25.40;99.90;;;25.57;100.00;94848.00;2277737;54;26715;-53
2021/07/29 13:24:31;;;;;;;3.58;3.28;;;25.00;99.90;;;25.28;100.00;94849.00;2519509;53;27158;-53
2021/07/29 13:27:17;;;;;;;4.85;3.62;;;24.80;99.90;;;25.27;100.00;94847.00;2280680;54;26644;-53
2021/07/29 13:30:06;;;;;;;3.97;3.58;;;24.90;99.90;;;25.34;100.00;94842.00;2521946;53;26815;-53
2021/07/29 13:32:52;;;;;;;4.10;3.67;;;24.90;99.90;;;25.26;100.00;94843.00;2287756;54;26796;-53
2021/07/29 13:38:35;;;;;;;3.67;3.37;;;25.40;99.90;;;27.11;100.00;94837.00;2362228;56;34005;-53
2021/07/29 13:41:21;;;;;;;4.32;3.87;;;26.60;99.90;;;26.97;100.00;94837.00;2151961;57;26712;-53
2021/07/29 13:44:09;;;;;;;3.70;3.40;;;25.80;99.90;;;26.11;100.00;94840.00;2372161;56;26930;-54
2021/07/29 13:46:56;;;;;;;8.10;3.78;;;25.90;99.90;;;26.32;100.00;94830.00;2146420;57;26685;-53
2021/07/29 13:49:42;;;;;;;5.20;3.42;;;26.50;99.90;;;27.25;100.00;94828.00;2158132;57;26911;-53
2021/07/29 13:52:29;;;;;;;4.05;3.45;;;27.10;99.90;;;27.80;100.00;94830.00;2160438;58;26214;-53
2021/07/29 13:55:17;;;;;;;3.92;3.62;;;27.50;99.90;;;28.18;99.52;94822.00;2161420;58;26164;-53
2021/07/29 13:58:04;;;;;;;4.97;3.58;;;27.50;99.90;;;28.10;93.47;94826.00;2159486;57;31042;-54
2021/07/29 14:00:50;;;;;;;4.40;3.75;;;27.60;99.90;;;28.12;96.61;94818.00;2161619;57;26690;-53
2021/07/29 14:03:37;;;;;;;4.18;3.80;;;27.80;99.90;;;28.04;100.00;94815.00;2160535;57;26925;-54